createdAt,value
2022-09-25T00:01:13.954Z,99.90
2022-09-25T00:03:41.966Z,99.90
2022-09-25T00:06:29.868Z,99.90
2022-09-25T00:08:59.644Z,99.90
2022-09-25T00:11:29.429Z,99.90
2022-09-25T00:13:57.439Z,99.90
2022-09-25T00:16:27.050Z,99.90
2022-09-25T00:19:13.410Z,99.90
2022-09-25T00:21:40.751Z,99.90
2022-09-25T00:24:09.699Z,99.90
2022-09-25T00:26:40.377Z,99.90
2022-09-25T00:29:08.390Z,99.90
2022-09-25T00:31:35.644Z,99.90
2022-09-25T00:34:04.624Z,99.90
2022-09-25T00:36:32.186Z,99.90
2022-09-25T00:38:59.217Z,99.90
2022-09-25T00:41:28.033Z,99.90
2022-09-25T00:43:57.415Z,99.90
2022-09-25T00:46:43.226Z,99.90
2022-09-25T00:49:23.635Z,99.90
2022-09-25T00:52:18.582Z,99.90
2022-09-25T00:54:53.149Z,99.90
2022-09-25T00:57:23.245Z,99.90
2022-09-25T00:59:55.350Z,99.90
2022-09-25T01:02:36.641Z,99.90
2022-09-25T01:05:08.330Z,99.90
2022-09-25T01:07:39.187Z,99.90
2022-09-25T01:10:08.278Z,99.90
2022-09-25T01:12:44.809Z,99.90
2022-09-25T01:15:14.793Z,99.90
2022-09-25T01:18:10.254Z,99.90
2022-09-25T01:20:46.071Z,99.90
2022-09-25T01:23:32.030Z,99.90
2022-09-25T01:26:29.918Z,99.90
2022-09-25T01:29:02.383Z,99.90
2022-09-25T01:31:46.637Z,99.90
2022-09-25T01:34:40.704Z,99.90
2022-09-25T01:37:16.888Z,99.90
2022-09-25T01:39:50.210Z,99.90
2022-09-25T01:42:26.079Z,99.90
2022-09-25T01:45:02.400Z,99.90
2022-09-25T01:47:33.700Z,99.90
2022-09-25T01:50:05.445Z,99.90
2022-09-25T01:52:40.970Z,99.90
2022-09-25T01:55:19.175Z,99.90
2022-09-25T01:58:16.409Z,99.90
2022-09-25T02:00:50.916Z,99.90
2022-09-25T02:03:25.941Z,99.90
2022-09-25T02:05:57.088Z,99.90
2022-09-25T02:08:32.851Z,99.90
2022-09-25T02:11:03.622Z,99.90
2022-09-25T02:13:41.473Z,99.90
2022-09-25T02:16:16.801Z,99.90
2022-09-25T02:19:04.355Z,99.90
2022-09-25T02:21:50.302Z,99.90
2022-09-25T02:24:33.686Z,99.90
2022-09-25T02:27:00.826Z,99.90
2022-09-25T02:29:28.230Z,99.90
2022-09-25T02:32:17.432Z,99.90
2022-09-25T02:34:44.532Z,99.90
2022-09-25T02:37:16.353Z,99.90
2022-09-25T02:39:45.131Z,99.90
2022-09-25T02:42:49.736Z,99.90
2022-09-25T02:45:28.444Z,99.90
2022-09-25T02:48:02.417Z,99.90
2022-09-25T02:51:07.008Z,99.90
2022-09-25T02:53:41.044Z,99.90
2022-09-25T02:56:22.853Z,99.90
2022-09-25T02:58:54.004Z,99.90
2022-09-25T03:01:25.879Z,99.90
2022-09-25T03:03:55.211Z,99.90
2022-09-25T03:06:26.340Z,99.90
2022-09-25T03:08:56.910Z,99.90
2022-09-25T03:11:28.862Z,99.90
2022-09-25T03:14:02.381Z,99.90
2022-09-25T03:16:51.509Z,99.90
2022-09-25T03:19:22.494Z,99.90
2022-09-25T03:21:50.459Z,99.90
2022-09-25T03:24:17.808Z,99.90
2022-09-25T03:26:44.858Z,99.90
2022-09-25T03:29:13.338Z,99.90
2022-09-25T03:31:41.534Z,99.90
2022-09-25T03:34:09.518Z,99.90
2022-09-25T03:36:36.984Z,99.90
2022-09-25T03:39:04.417Z,99.90
2022-09-25T03:41:32.986Z,99.90
2022-09-25T03:44:01.218Z,99.90
2022-09-25T03:46:30.579Z,99.90
2022-09-25T03:48:58.541Z,99.90
2022-09-25T03:51:27.254Z,99.90
2022-09-25T03:53:54.910Z,99.90
2022-09-25T03:56:25.555Z,99.90
2022-09-25T03:58:54.379Z,99.90
2022-09-25T04:01:22.373Z,99.90
2022-09-25T04:03:50.621Z,99.90
2022-09-25T04:06:21.452Z,99.90
2022-09-25T04:08:49.818Z,99.90
2022-09-25T04:11:17.955Z,99.90
2022-09-25T04:13:46.765Z,99.90
2022-09-25T04:16:16.216Z,99.90
2022-09-25T04:18:43.697Z,99.90
2022-09-25T04:21:13.185Z,99.90
2022-09-25T04:23:40.597Z,99.90
2022-09-25T04:26:09.423Z,99.90
2022-09-25T04:28:36.996Z,99.90
2022-09-25T04:31:04.560Z,99.90
2022-09-25T04:33:48.358Z,99.90
2022-09-25T04:36:16.985Z,99.90
2022-09-25T04:38:44.220Z,99.90
2022-09-25T04:41:11.441Z,99.90
2022-09-25T04:43:41.009Z,99.90
2022-09-25T04:46:09.614Z,99.90
2022-09-25T04:48:37.256Z,99.90
2022-09-25T04:51:05.493Z,99.90
2022-09-25T04:53:39.190Z,99.90
2022-09-25T04:56:13.939Z,99.90
2022-09-25T04:58:46.256Z,99.90
2022-09-25T05:01:13.616Z,99.90
2022-09-25T05:03:40.823Z,99.90
2022-09-25T05:06:07.986Z,99.90
2022-09-25T05:08:34.896Z,99.90
2022-09-25T05:11:01.957Z,99.90
2022-09-25T05:13:28.865Z,99.90
2022-09-25T05:15:56.653Z,99.90
2022-09-25T05:18:24.429Z,99.90
2022-09-25T05:20:55.986Z,99.90
2022-09-25T05:23:23.974Z,99.90
2022-09-25T05:25:55.334Z,99.90
2022-09-25T05:28:23.655Z,99.90
2022-09-25T05:30:51.621Z,99.90
2022-09-25T05:33:19.256Z,99.90
2022-09-25T05:35:47.006Z,99.90
2022-09-25T05:38:15.126Z,99.90
2022-09-25T05:40:42.343Z,99.90
2022-09-25T05:43:09.377Z,99.90
2022-09-25T05:45:36.376Z,99.90
2022-09-25T05:48:05.963Z,99.90
2022-09-25T05:50:33.510Z,99.90
2022-09-25T05:53:07.641Z,99.90
2022-09-25T05:55:34.726Z,99.90
2022-09-25T05:58:08.231Z,99.90
2022-09-25T06:00:35.175Z,99.90
2022-09-25T06:03:02.453Z,99.90
2022-09-25T06:05:30.070Z,99.90
2022-09-25T06:07:57.398Z,99.90
2022-09-25T06:10:28.152Z,99.90
2022-09-25T06:12:59.768Z,99.90
2022-09-25T06:15:37.510Z,99.90
2022-09-25T06:18:05.485Z,99.90
2022-09-25T06:20:32.711Z,99.90
2022-09-25T06:23:04.323Z,99.90
2022-09-25T06:25:36.607Z,99.90
2022-09-25T06:28:12.579Z,99.90
2022-09-25T06:30:40.220Z,99.90
2022-09-25T06:33:12.883Z,99.90
2022-09-25T06:35:44.043Z,99.90
2022-09-25T06:38:13.066Z,99.90
2022-09-25T06:40:41.766Z,99.90
2022-09-25T06:43:15.770Z,99.90
2022-09-25T06:45:43.639Z,99.90
2022-09-25T06:48:13.730Z,99.90
2022-09-25T06:50:50.955Z,99.90
2022-09-25T06:53:19.669Z,99.90
2022-09-25T06:55:47.959Z,99.90
2022-09-25T06:58:20.972Z,99.90
2022-09-25T07:00:52.029Z,99.90
2022-09-25T07:03:37.634Z,99.90
2022-09-25T07:06:08.095Z,99.90
2022-09-25T07:08:35.592Z,99.90
2022-09-25T07:11:04.190Z,99.90
2022-09-25T07:13:35.096Z,99.90
2022-09-25T07:16:13.780Z,99.90
2022-09-25T07:18:41.090Z,99.90
2022-09-25T07:21:18.596Z,99.90
2022-09-25T07:23:52.927Z,99.90
2022-09-25T07:26:31.328Z,99.90
2022-09-25T07:29:04.755Z,99.90
2022-09-25T07:31:33.769Z,99.90
2022-09-25T07:34:05.978Z,99.90
2022-09-25T07:36:34.027Z,99.90
2022-09-25T07:39:01.494Z,99.90
2022-09-25T07:41:28.973Z,99.90
2022-09-25T07:46:46.254Z,99.90
2022-09-25T07:49:16.017Z,99.90
2022-09-25T07:51:43.012Z,99.90
2022-09-25T07:54:10.188Z,99.90
2022-09-25T07:56:38.463Z,99.90
2022-09-25T07:59:05.995Z,99.90
2022-09-25T08:01:33.070Z,99.90
2022-09-25T08:04:00.229Z,99.90
2022-09-25T08:06:27.275Z,99.90
2022-09-25T08:08:54.289Z,99.90
2022-09-25T08:11:23.256Z,99.90
2022-09-25T08:13:50.339Z,99.90
2022-09-25T08:16:19.307Z,99.90
2022-09-25T08:18:47.526Z,99.90
2022-09-25T08:21:20.296Z,99.90
2022-09-25T08:23:52.999Z,99.90
2022-09-25T08:26:23.140Z,99.90
2022-09-25T08:28:52.752Z,99.90
2022-09-25T08:31:20.266Z,99.90
2022-09-25T08:33:49.313Z,99.90
2022-09-25T08:36:17.205Z,99.90
2022-09-25T08:38:45.659Z,99.90
2022-09-25T08:41:29.117Z,99.90
2022-09-25T08:44:15.805Z,99.90
2022-09-25T08:47:25.764Z,99.90
2022-09-25T08:50:16.285Z,99.90
2022-09-25T08:52:48.108Z,99.90
2022-09-25T08:55:47.382Z,99.90
2022-09-25T08:58:26.740Z,99.90
2022-09-25T09:00:57.676Z,99.90
2022-09-25T09:03:26.058Z,99.90
2022-09-25T09:06:01.166Z,99.90
2022-09-25T09:08:31.380Z,99.90
2022-09-25T09:11:03.003Z,99.90
2022-09-25T09:13:54.946Z,99.20
2022-09-25T09:16:39.014Z,98.90
2022-09-25T09:19:10.755Z,95.80
2022-09-25T09:22:01.142Z,95.40
2022-09-25T09:24:53.192Z,95.60
2022-09-25T09:27:42.671Z,96.00
2022-09-25T09:30:12.686Z,95.80
2022-09-25T09:33:25.172Z,94.80
2022-09-25T09:36:15.910Z,93.40
2022-09-25T09:39:11.786Z,92.50
2022-09-25T09:42:17.535Z,93.40
2022-09-25T09:45:03.742Z,89.80
2022-09-25T09:48:07.281Z,87.80
2022-09-25T09:50:53.184Z,89.70
2022-09-25T09:53:44.287Z,89.40
2022-09-25T09:56:32.626Z,87.90
2022-09-25T09:59:06.804Z,90.70
2022-09-25T10:01:41.349Z,90.10
2022-09-25T10:04:22.613Z,87.70
2022-09-25T10:07:01.208Z,90.30
2022-09-25T10:09:37.658Z,83.80
2022-09-25T10:12:22.268Z,76.90
2022-09-25T10:14:50.172Z,74.80
2022-09-25T10:17:18.502Z,74.80
2022-09-25T10:19:52.546Z,77.80
2022-09-25T10:22:26.060Z,79.90
2022-09-25T10:25:02.127Z,80.20
2022-09-25T10:27:43.493Z,81.70
2022-09-25T10:30:13.593Z,84.60
2022-09-25T10:33:02.788Z,70.90
2022-09-25T10:35:43.840Z,73.20
2022-09-25T10:38:35.555Z,74.00
2022-09-25T10:41:07.781Z,70.40
2022-09-25T10:43:35.259Z,74.70
2022-09-25T10:46:14.705Z,78.00
2022-09-25T10:49:01.501Z,62.90
2022-09-25T10:51:29.598Z,62.50
2022-09-25T10:54:15.741Z,63.60
2022-09-25T10:56:43.049Z,63.10
2022-09-25T10:59:18.954Z,54.30
2022-09-25T11:01:47.867Z,45.60
2022-09-25T11:04:30.816Z,55.80
2022-09-25T11:07:01.735Z,55.30
2022-09-25T11:09:32.444Z,47.80
2022-09-25T11:12:15.716Z,59.70
2022-09-25T11:14:55.369Z,48.50
2022-09-25T11:17:38.002Z,50.40
2022-09-25T11:20:29.652Z,43.10
2022-09-25T11:23:21.943Z,48.20
2022-09-25T11:25:53.786Z,38.20
2022-09-25T11:28:49.921Z,42.30
2022-09-25T11:31:41.148Z,26.90
2022-09-25T11:34:33.216Z,33.50
2022-09-25T11:37:10.135Z,28.60
2022-09-25T11:40:05.392Z,36.30
2022-09-25T11:42:51.902Z,35.60
2022-09-25T11:45:55.767Z,29.50
2022-09-25T11:48:35.143Z,43.90
2022-09-25T11:51:17.871Z,36.30
2022-09-25T11:54:25.180Z,26.70
2022-09-25T11:57:00.287Z,25.90
2022-09-25T12:00:04.571Z,17.00
2022-09-25T12:02:50.567Z,31.20
2022-09-25T12:05:38.825Z,23.20
2022-09-25T12:08:50.430Z,23.60
2022-09-25T12:11:45.737Z,21.60
2022-09-25T12:14:44.445Z,21.30
2022-09-25T12:17:25.608Z,11.20
2022-09-25T12:20:01.356Z,25.40
2022-09-25T12:23:07.220Z,30.80
2022-09-25T12:25:44.570Z,20.00
2022-09-25T12:28:20.457Z,18.80
2022-09-25T12:30:56.126Z,27.20
2022-09-25T12:33:32.694Z,26.10
2022-09-25T12:36:24.619Z,32.10
2022-09-25T12:39:15.700Z,27.90
2022-09-25T12:41:54.323Z,36.40
2022-09-25T12:44:30.312Z,35.80
2022-09-25T12:47:17.478Z,35.50
2022-09-25T12:49:57.102Z,18.70
2022-09-25T12:52:39.527Z,25.30
2022-09-25T12:55:16.462Z,18.20
2022-09-25T12:57:54.538Z,26.60
2022-09-25T13:00:52.995Z,17.10
2022-09-25T13:03:43.455Z,23.50
2022-09-25T13:06:35.695Z,17.50
2022-09-25T13:09:34.719Z,19.30
2022-09-25T13:12:23.313Z,20.50
2022-09-25T13:15:11.970Z,30.10
2022-09-25T13:17:40.323Z,20.40
2022-09-25T13:20:28.842Z,32.40
2022-09-25T13:23:02.140Z,28.70
2022-09-25T13:25:31.284Z,30.00
2022-09-25T13:28:07.363Z,31.40
2022-09-25T13:30:36.540Z,34.30
2022-09-25T13:33:04.810Z,34.50
2022-09-25T13:35:33.205Z,33.50
2022-09-25T13:38:35.888Z,32.30
2022-09-25T13:41:13.946Z,30.90
2022-09-25T13:43:44.322Z,32.50
2022-09-25T13:46:15.879Z,33.60
2022-09-25T13:48:43.302Z,38.80
2022-09-25T13:51:37.400Z,35.60
2022-09-25T13:54:27.271Z,33.80
2022-09-25T13:56:55.107Z,31.40
2022-09-25T13:59:24.620Z,34.00
2022-09-25T14:01:54.900Z,33.40
2022-09-25T14:04:39.039Z,37.30
2022-09-25T14:07:16.399Z,35.70
2022-09-25T14:09:51.463Z,33.00
2022-09-25T14:12:33.457Z,34.10
2022-09-25T14:15:14.198Z,28.00
2022-09-25T14:17:44.553Z,33.80
2022-09-25T14:20:42.207Z,26.00
2022-09-25T14:23:33.669Z,23.60
2022-09-25T14:26:23.165Z,18.10
2022-09-25T14:28:51.315Z,19.80
2022-09-25T14:31:33.036Z,27.50
2022-09-25T14:34:26.335Z,24.00
2022-09-25T14:37:15.763Z,22.30
2022-09-25T14:40:02.918Z,25.40
2022-09-25T14:42:59.309Z,25.50
2022-09-25T14:45:50.749Z,26.10
2022-09-25T14:48:24.473Z,28.30
2022-09-25T14:51:00.351Z,31.30
2022-09-25T14:53:32.904Z,31.10
2022-09-25T14:56:02.862Z,31.70
2022-09-25T14:58:32.716Z,32.50
2022-09-25T15:01:26.132Z,37.20
2022-09-25T15:03:57.382Z,41.80
2022-09-25T15:06:27.267Z,43.40
2022-09-25T15:08:54.310Z,40.80
2022-09-25T15:11:23.857Z,38.10
2022-09-25T15:13:51.744Z,39.40
2022-09-25T15:16:41.927Z,40.50
2022-09-25T15:19:20.639Z,43.80
2022-09-25T15:21:50.977Z,40.30
2022-09-25T15:24:27.644Z,39.80
2022-09-25T15:27:05.206Z,37.90
2022-09-25T15:29:41.901Z,35.50
2022-09-25T15:32:28.739Z,34.80
2022-09-25T15:35:27.117Z,33.40
2022-09-25T15:38:16.311Z,31.20
2022-09-25T15:40:43.435Z,27.70
2022-09-25T15:43:15.078Z,29.20
2022-09-25T15:45:48.466Z,30.00
2022-09-25T15:48:33.014Z,32.40
2022-09-25T15:51:14.619Z,30.40
2022-09-25T15:53:44.369Z,32.60
2022-09-25T15:56:17.312Z,34.80
2022-09-25T15:59:20.601Z,32.90
2022-09-25T16:02:06.981Z,37.20
2022-09-25T16:04:46.304Z,34.80
2022-09-25T16:07:32.111Z,35.80
2022-09-25T16:10:06.933Z,38.10
2022-09-25T16:12:46.213Z,35.90
2022-09-25T16:15:28.452Z,36.90
2022-09-25T16:18:21.762Z,39.20
2022-09-25T16:21:09.898Z,38.00
2022-09-25T16:23:38.483Z,38.70
2022-09-25T16:26:13.945Z,38.00
2022-09-25T16:28:54.782Z,39.20
2022-09-25T16:31:24.947Z,38.80
2022-09-25T16:33:56.637Z,40.20
2022-09-25T16:36:26.047Z,40.90
2022-09-25T16:39:10.488Z,41.00
2022-09-25T16:41:39.235Z,43.50
2022-09-25T16:44:19.021Z,46.30
2022-09-25T16:47:16.213Z,46.80
2022-09-25T16:49:46.203Z,48.60
2022-09-25T16:52:22.512Z,48.90
2022-09-25T16:54:57.434Z,49.00
2022-09-25T16:57:28.139Z,52.10
2022-09-25T16:59:56.578Z,51.50
2022-09-25T17:02:36.111Z,52.40
2022-09-25T17:05:11.025Z,53.60
2022-09-25T17:07:38.077Z,53.70
2022-09-25T17:10:06.469Z,53.30
2022-09-25T17:12:34.210Z,53.80
2022-09-25T17:15:01.436Z,55.30
2022-09-25T17:17:30.944Z,57.20
2022-09-25T17:19:58.132Z,57.20
2022-09-25T17:22:29.542Z,58.70
2022-09-25T17:25:00.893Z,61.30
2022-09-25T17:27:29.534Z,62.30
2022-09-25T17:29:56.764Z,65.20
2022-09-25T17:32:23.767Z,67.30
2022-09-25T17:34:51.075Z,69.90
2022-09-25T17:37:18.028Z,73.60
2022-09-25T17:39:46.276Z,75.70
2022-09-25T17:42:13.313Z,76.60
2022-09-25T17:44:43.358Z,79.70
2022-09-25T17:47:10.669Z,81.00
2022-09-25T17:49:37.645Z,79.90
2022-09-25T17:52:05.070Z,81.00
2022-09-25T17:54:32.237Z,79.90
2022-09-25T17:56:59.190Z,81.00
2022-09-25T17:59:26.264Z,80.10
2022-09-25T18:01:53.546Z,81.40
2022-09-25T18:04:24.510Z,81.70
2022-09-25T18:06:52.075Z,82.10
2022-09-25T18:09:19.218Z,83.20
2022-09-25T18:11:46.251Z,84.70
2022-09-25T18:14:16.947Z,85.60
2022-09-25T18:16:45.801Z,87.10
2022-09-25T18:19:37.770Z,87.50
2022-09-25T18:22:19.000Z,88.30
2022-09-25T18:24:47.890Z,88.20
2022-09-25T18:27:18.774Z,88.70
2022-09-25T18:29:47.480Z,89.60
2022-09-25T18:32:18.067Z,91.30
2022-09-25T18:34:45.101Z,91.30
2022-09-25T18:37:12.410Z,91.50
2022-09-25T18:39:39.414Z,92.00
2022-09-25T18:42:07.107Z,92.20
2022-09-25T18:44:42.304Z,91.70
2022-09-25T18:47:10.816Z,92.90
2022-09-25T18:49:38.058Z,92.90
2022-09-25T18:52:05.632Z,92.50
2022-09-25T18:54:32.684Z,92.80
2022-09-25T18:56:59.704Z,93.10
2022-09-25T18:59:27.989Z,93.50
2022-09-25T19:01:57.215Z,94.20
2022-09-25T19:04:26.201Z,95.30
2022-09-25T19:06:53.515Z,94.70
2022-09-25T19:09:24.492Z,95.70
2022-09-25T19:11:51.962Z,96.60
2022-09-25T19:14:20.088Z,97.40
2022-09-25T19:16:52.502Z,97.70
2022-09-25T19:19:21.393Z,98.00
2022-09-25T19:21:50.603Z,98.30
2022-09-25T19:24:18.499Z,98.60
2022-09-25T19:26:45.755Z,98.60
2022-09-25T19:29:12.812Z,99.40
2022-09-25T19:31:40.186Z,99.80
2022-09-25T19:34:07.215Z,99.90
2022-09-25T19:36:35.101Z,99.90
2022-09-25T19:39:03.122Z,99.60
2022-09-25T19:41:34.074Z,99.70
2022-09-25T19:44:11.314Z,99.90
2022-09-25T19:46:42.435Z,99.90
2022-09-25T19:49:10.559Z,99.90
2022-09-25T19:51:39.987Z,99.90
2022-09-25T19:54:08.490Z,99.90
2022-09-25T19:56:40.646Z,99.90
2022-09-25T19:59:13.358Z,99.90
2022-09-25T20:01:40.869Z,99.90
2022-09-25T20:04:08.814Z,99.90
2022-09-25T20:06:37.207Z,99.90
2022-09-25T20:09:06.944Z,99.90
2022-09-25T20:11:35.522Z,99.90
2022-09-25T20:14:07.916Z,99.90
2022-09-25T20:16:37.416Z,99.90
2022-09-25T20:19:06.653Z,99.90
2022-09-25T20:21:36.036Z,99.90
2022-09-25T20:24:05.377Z,99.90
2022-09-25T20:26:33.909Z,99.90
2022-09-25T20:29:04.941Z,99.90
2022-09-25T20:31:32.824Z,99.90
2022-09-25T20:34:00.161Z,99.90
2022-09-25T20:36:27.546Z,99.90
2022-09-25T20:38:56.924Z,99.90
2022-09-25T20:41:26.451Z,99.90
2022-09-25T20:43:56.080Z,99.90
2022-09-25T20:46:24.233Z,99.90
2022-09-25T20:48:53.302Z,99.90
2022-09-25T20:51:30.558Z,99.90
2022-09-25T20:54:00.386Z,99.90
2022-09-25T20:56:30.068Z,99.90
2022-09-25T20:58:58.562Z,99.90
2022-09-25T21:01:36.040Z,99.90
2022-09-25T21:04:10.381Z,99.90
2022-09-25T21:06:41.853Z,99.90
2022-09-25T21:09:23.218Z,99.90
2022-09-25T21:11:55.505Z,99.90
2022-09-25T21:14:42.685Z,99.90
2022-09-25T21:17:09.726Z,99.90
2022-09-25T21:19:37.164Z,99.90
2022-09-25T21:22:04.151Z,99.90
2022-09-25T21:24:31.128Z,99.90
2022-09-25T21:26:59.151Z,99.90
2022-09-25T21:29:26.263Z,99.90
2022-09-25T21:31:55.952Z,99.90
2022-09-25T21:34:23.321Z,99.90
2022-09-25T21:36:50.458Z,99.90
2022-09-25T21:39:21.235Z,99.90
2022-09-25T21:41:49.955Z,99.90
2022-09-25T21:44:20.317Z,99.90
2022-09-25T21:46:48.393Z,99.90
2022-09-25T21:49:20.718Z,99.90
2022-09-25T21:51:51.232Z,99.90
2022-09-25T21:54:19.528Z,99.90
2022-09-25T21:56:48.844Z,99.90
2022-09-25T21:59:18.255Z,99.90
2022-09-25T22:01:45.550Z,99.90
2022-09-25T22:04:16.259Z,99.90
2022-09-25T22:06:48.898Z,99.90
2022-09-25T22:09:19.389Z,99.90
2022-09-25T22:11:47.912Z,99.90
2022-09-25T22:14:16.650Z,99.90
2022-09-25T22:16:47.391Z,99.90
2022-09-25T22:19:25.629Z,99.90
2022-09-25T22:21:54.861Z,99.90
2022-09-25T22:24:23.290Z,99.90
2022-09-25T22:26:51.991Z,99.90
2022-09-25T22:29:21.152Z,99.90
2022-09-25T22:31:49.059Z,99.90
2022-09-25T22:34:25.561Z,99.90
2022-09-25T22:36:58.957Z,99.90
2022-09-25T22:39:27.935Z,99.90
2022-09-25T22:41:55.935Z,99.90
2022-09-25T22:44:24.037Z,99.90
2022-09-25T22:46:51.320Z,99.90
2022-09-25T22:49:18.348Z,99.90
2022-09-25T22:51:45.433Z,99.90
2022-09-25T22:54:14.644Z,99.90
2022-09-25T22:56:42.887Z,99.90
2022-09-25T22:59:14.672Z,99.90
2022-09-25T23:01:51.872Z,99.90
2022-09-25T23:04:21.203Z,99.90
2022-09-25T23:06:49.569Z,99.90
2022-09-25T23:09:19.954Z,99.90
2022-09-25T23:11:47.000Z,99.90
2022-09-25T23:14:17.524Z,99.90
2022-09-25T23:16:47.389Z,99.90
2022-09-25T23:19:15.617Z,99.90
2022-09-25T23:21:43.304Z,99.90
2022-09-25T23:24:15.779Z,99.90
2022-09-25T23:26:43.716Z,99.90
2022-09-25T23:29:13.410Z,99.90
2022-09-25T23:31:42.171Z,99.90
2022-09-25T23:34:09.807Z,99.90
2022-09-25T23:36:37.444Z,99.90
2022-09-25T23:39:06.761Z,99.90
2022-09-25T23:41:36.050Z,99.90
2022-09-25T23:44:05.578Z,99.90
2022-09-25T23:46:34.697Z,99.90
2022-09-25T23:49:02.221Z,99.90
2022-09-25T23:51:29.278Z,99.90
2022-09-25T23:53:57.926Z,99.90
2022-09-25T23:56:27.557Z,99.90
2022-09-25T23:58:57.261Z,99.90
